sensor_id;sensor_type;location;lat;lon;timestamp;temperature;humidity
53599;DHT22;39485;45.702;11.364;2023-04-10T00:01:37;8.60;99.90
53599;DHT22;39485;45.702;11.364;2023-04-10T00:04:03;8.60;99.90
53599;DHT22;39485;45.702;11.364;2023-04-10T00:06:29;8.50;99.90
53599;DHT22;39485;45.702;11.364;2023-04-10T00:08:56;8.50;99.90
53599;DHT22;39485;45.702;11.364;2023-04-10T00:11:23;8.50;99.90
53599;DHT22;39485;45.702;11.364;2023-04-10T00:13:49;8.40;99.90
53599;DHT22;39485;45.702;11.364;2023-04-10T00:16:15;8.30;99.90
53599;DHT22;39485;45.702;11.364;2023-04-10T00:18:41;8.30;99.90
53599;DHT22;39485;45.702;11.364;2023-04-10T00:21:06;8.20;99.90
53599;DHT22;39485;45.702;11.364;2023-04-10T00:23:32;8.10;99.90
53599;DHT22;39485;45.702;11.364;2023-04-10T00:25:59;8.00;99.90
53599;DHT22;39485;45.702;11.364;2023-04-10T00:28:25;8.00;99.90
53599;DHT22;39485;45.702;11.364;2023-04-10T00:30:51;7.90;99.90
53599;DHT22;39485;45.702;11.364;2023-04-10T00:33:16;7.90;99.90
53599;DHT22;39485;45.702;11.364;2023-04-10T00:35:42;7.80;99.90
53599;DHT22;39485;45.702;11.364;2023-04-10T00:38:08;7.70;99.90
53599;DHT22;39485;45.702;11.364;2023-04-10T00:40:33;7.70;99.90
53599;DHT22;39485;45.702;11.364;2023-04-10T00:42:59;7.60;99.90
53599;DHT22;39485;45.702;11.364;2023-04-10T00:45:25;7.50;99.90
53599;DHT22;39485;45.702;11.364;2023-04-10T00:50:21;7.40;99.90
53599;DHT22;39485;45.702;11.364;2023-04-10T00:52:48;7.40;99.90
53599;DHT22;39485;45.702;11.364;2023-04-10T00:55:14;7.40;99.90
53599;DHT22;39485;45.702;11.364;2023-04-10T00:57:44;7.40;99.90
53599;DHT22;39485;45.702;11.364;2023-04-10T01:00:12;7.40;99.90
53599;DHT22;39485;45.702;11.364;2023-04-10T01:02:38;7.30;99.90
53599;DHT22;39485;45.702;11.364;2023-04-10T01:05:04;7.30;99.90
53599;DHT22;39485;45.702;11.364;2023-04-10T01:13:21;7.20;99.90
53599;DHT22;39485;45.702;11.364;2023-04-10T01:15:54;7.20;99.90
53599;DHT22;39485;45.702;11.364;2023-04-10T01:18:33;7.20;99.90
53599;DHT22;39485;45.702;11.364;2023-04-10T01:21:01;7.20;99.90
53599;DHT22;39485;45.702;11.364;2023-04-10T01:26:26;7.10;99.90
53599;DHT22;39485;45.702;11.364;2023-04-10T01:29:07;7.10;99.90
53599;DHT22;39485;45.702;11.364;2023-04-10T01:34:25;7.00;99.90
53599;DHT22;39485;45.702;11.364;2023-04-10T01:37:03;6.90;99.90
53599;DHT22;39485;45.702;11.364;2023-04-10T01:39:32;6.90;99.90
53599;DHT22;39485;45.702;11.364;2023-04-10T01:42:01;6.90;99.90
53599;DHT22;39485;45.702;11.364;2023-04-10T01:44:29;6.80;99.90
53599;DHT22;39485;45.702;11.364;2023-04-10T01:46:56;6.80;99.90
53599;DHT22;39485;45.702;11.364;2023-04-10T01:49:25;6.80;99.90
53599;DHT22;39485;45.702;11.364;2023-04-10T01:51:51;6.70;99.90
53599;DHT22;39485;45.702;11.364;2023-04-10T01:54:20;6.70;99.90
53599;DHT22;39485;45.702;11.364;2023-04-10T01:56:45;6.60;99.90
53599;DHT22;39485;45.702;11.364;2023-04-10T01:59:11;6.60;99.90
53599;DHT22;39485;45.702;11.364;2023-04-10T02:01:37;6.60;99.90
53599;DHT22;39485;45.702;11.364;2023-04-10T02:04:02;6.60;99.90
53599;DHT22;39485;45.702;11.364;2023-04-10T02:06:34;6.60;99.90
53599;DHT22;39485;45.702;11.364;2023-04-10T02:09:12;6.60;99.90
53599;DHT22;39485;45.702;11.364;2023-04-10T02:14:10;6.50;99.90
53599;DHT22;39485;45.702;11.364;2023-04-10T02:16:41;6.50;99.90
53599;DHT22;39485;45.702;11.364;2023-04-10T02:19:09;6.50;99.90
53599;DHT22;39485;45.702;11.364;2023-04-10T02:21:35;6.40;99.90
53599;DHT22;39485;45.702;11.364;2023-04-10T02:24:02;6.30;99.90
53599;DHT22;39485;45.702;11.364;2023-04-10T02:26:28;6.30;99.90
53599;DHT22;39485;45.702;11.364;2023-04-10T02:28:53;6.30;99.90
53599;DHT22;39485;45.702;11.364;2023-04-10T02:31:19;6.20;99.90
53599;DHT22;39485;45.702;11.364;2023-04-10T02:33:45;6.20;99.90
53599;DHT22;39485;45.702;11.364;2023-04-10T02:36:10;6.20;99.90
53599;DHT22;39485;45.702;11.364;2023-04-10T02:38:37;6.10;99.90
53599;DHT22;39485;45.702;11.364;2023-04-10T02:41:02;6.10;99.90
53599;DHT22;39485;45.702;11.364;2023-04-10T02:43:28;6.10;99.90
53599;DHT22;39485;45.702;11.364;2023-04-10T02:45:54;6.10;99.90
53599;DHT22;39485;45.702;11.364;2023-04-10T02:48:20;6.10;99.90
53599;DHT22;39485;45.702;11.364;2023-04-10T02:50:45;6.10;99.90
53599;DHT22;39485;45.702;11.364;2023-04-10T02:53:15;6.10;99.90
53599;DHT22;39485;45.702;11.364;2023-04-10T02:55:41;6.00;99.90
53599;DHT22;39485;45.702;11.364;2023-04-10T02:58:07;6.10;99.90
53599;DHT22;39485;45.702;11.364;2023-04-10T03:00:32;6.00;99.90
53599;DHT22;39485;45.702;11.364;2023-04-10T03:02:58;6.00;99.90
53599;DHT22;39485;45.702;11.364;2023-04-10T03:05:23;6.00;99.90
53599;DHT22;39485;45.702;11.364;2023-04-10T03:07:49;6.00;99.90
53599;DHT22;39485;45.702;11.364;2023-04-10T03:10:15;5.90;99.90
53599;DHT22;39485;45.702;11.364;2023-04-10T03:12:40;5.90;99.90
53599;DHT22;39485;45.702;11.364;2023-04-10T03:15:06;5.90;99.90
53599;DHT22;39485;45.702;11.364;2023-04-10T03:17:33;5.90;99.90
53599;DHT22;39485;45.702;11.364;2023-04-10T03:19:59;5.90;99.90
53599;DHT22;39485;45.702;11.364;2023-04-10T03:22:25;5.90;99.90
53599;DHT22;39485;45.702;11.364;2023-04-10T03:24:51;5.90;99.90
53599;DHT22;39485;45.702;11.364;2023-04-10T03:27:17;5.90;99.90
53599;DHT22;39485;45.702;11.364;2023-04-10T03:29:43;5.90;99.90
53599;DHT22;39485;45.702;11.364;2023-04-10T03:32:09;5.90;99.90
53599;DHT22;39485;45.702;11.364;2023-04-10T03:34:34;5.90;99.90
53599;DHT22;39485;45.702;11.364;2023-04-10T03:37:00;5.80;99.90
53599;DHT22;39485;45.702;11.364;2023-04-10T03:39:27;5.80;99.90
53599;DHT22;39485;45.702;11.364;2023-04-10T03:41:53;5.80;99.90
53599;DHT22;39485;45.702;11.364;2023-04-10T03:44:19;5.70;99.90
53599;DHT22;39485;45.702;11.364;2023-04-10T03:46:44;5.80;99.90
53599;DHT22;39485;45.702;11.364;2023-04-10T03:49:10;5.70;99.90
53599;DHT22;39485;45.702;11.364;2023-04-10T03:51:36;5.70;99.90
53599;DHT22;39485;45.702;11.364;2023-04-10T03:54:01;5.70;99.90
53599;DHT22;39485;45.702;11.364;2023-04-10T03:56:27;5.70;99.90
53599;DHT22;39485;45.702;11.364;2023-04-10T03:58:52;5.70;99.90
53599;DHT22;39485;45.702;11.364;2023-04-10T04:01:19;5.70;99.90
53599;DHT22;39485;45.702;11.364;2023-04-10T04:03:44;5.60;99.90
53599;DHT22;39485;45.702;11.364;2023-04-10T04:06:10;5.60;99.90
53599;DHT22;39485;45.702;11.364;2023-04-10T04:08:36;5.60;99.90
53599;DHT22;39485;45.702;11.364;2023-04-10T04:11:03;5.60;99.90
53599;DHT22;39485;45.702;11.364;2023-04-10T04:13:28;5.50;99.90
53599;DHT22;39485;45.702;11.364;2023-04-10T04:15:54;5.50;99.90
53599;DHT22;39485;45.702;11.364;2023-04-10T04:18:20;5.50;99.90
53599;DHT22;39485;45.702;11.364;2023-04-10T04:20:45;5.40;99.90
53599;DHT22;39485;45.702;11.364;2023-04-10T04:23:11;5.40;99.90
53599;DHT22;39485;45.702;11.364;2023-04-10T04:25:36;5.40;99.90
53599;DHT22;39485;45.702;11.364;2023-04-10T04:28:02;5.40;99.90
53599;DHT22;39485;45.702;11.364;2023-04-10T04:30:28;5.40;99.90
53599;DHT22;39485;45.702;11.364;2023-04-10T04:32:53;5.30;99.90
53599;DHT22;39485;45.702;11.364;2023-04-10T04:35:19;5.30;99.90
53599;DHT22;39485;45.702;11.364;2023-04-10T04:37:45;5.30;99.90
53599;DHT22;39485;45.702;11.364;2023-04-10T04:40:11;5.30;99.90
53599;DHT22;39485;45.702;11.364;2023-04-10T04:42:36;5.30;99.90
53599;DHT22;39485;45.702;11.364;2023-04-10T04:45:02;5.30;99.90
53599;DHT22;39485;45.702;11.364;2023-04-10T04:47:28;5.30;99.90
53599;DHT22;39485;45.702;11.364;2023-04-10T04:49:53;5.20;99.90
53599;DHT22;39485;45.702;11.364;2023-04-10T04:52:19;5.20;99.90
53599;DHT22;39485;45.702;11.364;2023-04-10T04:54:44;5.20;99.90
53599;DHT22;39485;45.702;11.364;2023-04-10T04:57:10;5.20;99.90
53599;DHT22;39485;45.702;11.364;2023-04-10T04:59:36;5.20;99.90
53599;DHT22;39485;45.702;11.364;2023-04-10T05:02:02;5.10;99.90
53599;DHT22;39485;45.702;11.364;2023-04-10T05:04:28;5.20;99.90
53599;DHT22;39485;45.702;11.364;2023-04-10T05:06:53;5.10;99.90
53599;DHT22;39485;45.702;11.364;2023-04-10T05:09:19;5.10;99.90
53599;DHT22;39485;45.702;11.364;2023-04-10T05:11:45;5.10;99.90
53599;DHT22;39485;45.702;11.364;2023-04-10T05:14:10;5.20;99.90
53599;DHT22;39485;45.702;11.364;2023-04-10T05:16:36;5.20;99.90
53599;DHT22;39485;45.702;11.364;2023-04-10T05:19:02;5.20;99.90
53599;DHT22;39485;45.702;11.364;2023-04-10T05:21:27;5.20;99.90
53599;DHT22;39485;45.702;11.364;2023-04-10T05:23:53;5.20;99.90
53599;DHT22;39485;45.702;11.364;2023-04-10T05:26:18;5.20;99.90
53599;DHT22;39485;45.702;11.364;2023-04-10T05:28:44;5.30;99.90
53599;DHT22;39485;45.702;11.364;2023-04-10T05:31:10;5.30;99.90
53599;DHT22;39485;45.702;11.364;2023-04-10T05:33:36;5.30;99.90
53599;DHT22;39485;45.702;11.364;2023-04-10T05:36:01;5.40;99.90
53599;DHT22;39485;45.702;11.364;2023-04-10T05:38:27;5.40;99.90
53599;DHT22;39485;45.702;11.364;2023-04-10T05:40:53;5.40;99.90
53599;DHT22;39485;45.702;11.364;2023-04-10T05:43:19;5.50;99.90
53599;DHT22;39485;45.702;11.364;2023-04-10T05:45:46;5.50;99.90
53599;DHT22;39485;45.702;11.364;2023-04-10T05:48:11;5.60;99.90
53599;DHT22;39485;45.702;11.364;2023-04-10T05:50:37;5.70;99.90
53599;DHT22;39485;45.702;11.364;2023-04-10T05:53:03;5.80;99.90
53599;DHT22;39485;45.702;11.364;2023-04-10T05:55:30;5.90;99.90
53599;DHT22;39485;45.702;11.364;2023-04-10T05:57:56;6.00;99.90
53599;DHT22;39485;45.702;11.364;2023-04-10T06:00:22;6.10;99.90
53599;DHT22;39485;45.702;11.364;2023-04-10T06:02:47;6.10;99.90
53599;DHT22;39485;45.702;11.364;2023-04-10T06:05:13;6.30;99.90
53599;DHT22;39485;45.702;11.364;2023-04-10T06:07:39;6.40;99.90
53599;DHT22;39485;45.702;11.364;2023-04-10T06:10:06;6.50;99.90
53599;DHT22;39485;45.702;11.364;2023-04-10T06:12:32;6.60;99.90
53599;DHT22;39485;45.702;11.364;2023-04-10T06:14:57;6.70;99.90
53599;DHT22;39485;45.702;11.364;2023-04-10T06:17:23;6.80;99.90
53599;DHT22;39485;45.702;11.364;2023-04-10T06:19:50;6.90;99.90
53599;DHT22;39485;45.702;11.364;2023-04-10T06:22:15;7.00;99.90
53599;DHT22;39485;45.702;11.364;2023-04-10T06:24:41;7.10;99.90
53599;DHT22;39485;45.702;11.364;2023-04-10T06:27:07;7.30;99.90
53599;DHT22;39485;45.702;11.364;2023-04-10T06:29:33;7.50;99.90
53599;DHT22;39485;45.702;11.364;2023-04-10T06:31:58;7.70;99.90
53599;DHT22;39485;45.702;11.364;2023-04-10T06:34:24;7.90;99.90
53599;DHT22;39485;45.702;11.364;2023-04-10T06:36:50;8.10;99.90
53599;DHT22;39485;45.702;11.364;2023-04-10T06:39:16;8.30;99.90
53599;DHT22;39485;45.702;11.364;2023-04-10T06:41:42;8.40;99.90
53599;DHT22;39485;45.702;11.364;2023-04-10T06:44:07;8.60;99.90
53599;DHT22;39485;45.702;11.364;2023-04-10T06:46:33;8.60;99.90
53599;DHT22;39485;45.702;11.364;2023-04-10T06:48:59;8.70;99.90
53599;DHT22;39485;45.702;11.364;2023-04-10T06:51:24;8.90;99.90
53599;DHT22;39485;45.702;11.364;2023-04-10T06:53:50;9.00;99.90
53599;DHT22;39485;45.702;11.364;2023-04-10T06:56:16;9.10;99.90
53599;DHT22;39485;45.702;11.364;2023-04-10T06:58:41;9.30;99.90
53599;DHT22;39485;45.702;11.364;2023-04-10T07:01:07;9.40;99.90
53599;DHT22;39485;45.702;11.364;2023-04-10T07:03:32;9.50;99.90
53599;DHT22;39485;45.702;11.364;2023-04-10T07:05:59;9.60;99.90
53599;DHT22;39485;45.702;11.364;2023-04-10T07:08:26;9.80;99.90
53599;DHT22;39485;45.702;11.364;2023-04-10T07:10:51;9.90;99.90
53599;DHT22;39485;45.702;11.364;2023-04-10T07:13:17;10.00;99.90
53599;DHT22;39485;45.702;11.364;2023-04-10T07:15:43;10.10;99.90
53599;DHT22;39485;45.702;11.364;2023-04-10T07:18:08;10.20;99.90
53599;DHT22;39485;45.702;11.364;2023-04-10T07:20:34;10.30;99.90
53599;DHT22;39485;45.702;11.364;2023-04-10T07:23:00;10.40;99.90
53599;DHT22;39485;45.702;11.364;2023-04-10T07:25:25;10.50;99.90
53599;DHT22;39485;45.702;11.364;2023-04-10T07:27:51;10.60;99.90
53599;DHT22;39485;45.702;11.364;2023-04-10T07:30:18;10.70;99.90
53599;DHT22;39485;45.702;11.364;2023-04-10T07:32:43;10.80;99.90
53599;DHT22;39485;45.702;11.364;2023-04-10T07:35:10;10.90;99.90
53599;DHT22;39485;45.702;11.364;2023-04-10T07:37:35;11.00;99.90
53599;DHT22;39485;45.702;11.364;2023-04-10T07:40:01;11.10;99.40
53599;DHT22;39485;45.702;11.364;2023-04-10T07:42:27;11.20;99.00
53599;DHT22;39485;45.702;11.364;2023-04-10T07:44:53;11.20;98.90
53599;DHT22;39485;45.702;11.364;2023-04-10T07:47:18;11.30;97.40
53599;DHT22;39485;45.702;11.364;2023-04-10T07:49:44;11.30;97.50
53599;DHT22;39485;45.702;11.364;2023-04-10T07:52:10;11.30;97.00
53599;DHT22;39485;45.702;11.364;2023-04-10T07:54:35;11.40;96.00
53599;DHT22;39485;45.702;11.364;2023-04-10T07:57:01;11.40;96.10
53599;DHT22;39485;45.702;11.364;2023-04-10T07:59:27;11.50;96.00
53599;DHT22;39485;45.702;11.364;2023-04-10T08:01:55;11.50;94.50
53599;DHT22;39485;45.702;11.364;2023-04-10T08:04:21;11.60;94.60
53599;DHT22;39485;45.702;11.364;2023-04-10T08:06:46;11.60;94.80
53599;DHT22;39485;45.702;11.364;2023-04-10T08:09:13;11.70;95.10
53599;DHT22;39485;45.702;11.364;2023-04-10T08:11:40;11.80;94.60
53599;DHT22;39485;45.702;11.364;2023-04-10T08:14:05;11.90;94.90
53599;DHT22;39485;45.702;11.364;2023-04-10T08:16:34;11.90;94.40
53599;DHT22;39485;45.702;11.364;2023-04-10T08:19:01;12.00;94.40
53599;DHT22;39485;45.702;11.364;2023-04-10T08:21:29;12.00;94.20
53599;DHT22;39485;45.702;11.364;2023-04-10T08:23:58;12.00;92.70
53599;DHT22;39485;45.702;11.364;2023-04-10T08:26:25;12.00;92.00
53599;DHT22;39485;45.702;11.364;2023-04-10T08:28:52;12.00;91.80
53599;DHT22;39485;45.702;11.364;2023-04-10T08:31:20;12.00;92.30
53599;DHT22;39485;45.702;11.364;2023-04-10T08:33:46;12.00;93.00
53599;DHT22;39485;45.702;11.364;2023-04-10T08:36:12;12.00;93.70
53599;DHT22;39485;45.702;11.364;2023-04-10T08:38:42;12.10;93.00
53599;DHT22;39485;45.702;11.364;2023-04-10T08:41:14;12.30;93.30
53599;DHT22;39485;45.702;11.364;2023-04-10T08:43:40;12.30;93.00
53599;DHT22;39485;45.702;11.364;2023-04-10T08:46:07;12.40;93.10
53599;DHT22;39485;45.702;11.364;2023-04-10T08:48:57;12.50;93.10
53599;DHT22;39485;45.702;11.364;2023-04-10T08:51:31;12.60;92.70
53599;DHT22;39485;45.702;11.364;2023-04-10T08:54:06;12.60;92.50
53599;DHT22;39485;45.702;11.364;2023-04-10T08:56:33;12.70;92.80
53599;DHT22;39485;45.702;11.364;2023-04-10T08:59:01;12.80;92.70
53599;DHT22;39485;45.702;11.364;2023-04-10T09:01:27;12.90;92.70
53599;DHT22;39485;45.702;11.364;2023-04-10T09:03:53;13.00;92.10
53599;DHT22;39485;45.702;11.364;2023-04-10T09:06:19;13.10;91.90
53599;DHT22;39485;45.702;11.364;2023-04-10T09:08:45;13.10;91.90
53599;DHT22;39485;45.702;11.364;2023-04-10T09:11:10;13.20;91.00
53599;DHT22;39485;45.702;11.364;2023-04-10T09:13:39;13.20;90.90
53599;DHT22;39485;45.702;11.364;2023-04-10T09:16:06;13.20;91.30
53599;DHT22;39485;45.702;11.364;2023-04-10T09:18:47;13.20;90.90
53599;DHT22;39485;45.702;11.364;2023-04-10T09:21:16;13.20;90.50
53599;DHT22;39485;45.702;11.364;2023-04-10T09:23:43;13.30;90.30
53599;DHT22;39485;45.702;11.364;2023-04-10T09:26:22;13.30;90.40
53599;DHT22;39485;45.702;11.364;2023-04-10T09:28:56;13.30;90.20
53599;DHT22;39485;45.702;11.364;2023-04-10T09:31:38;13.30;89.90
53599;DHT22;39485;45.702;11.364;2023-04-10T09:36:40;13.40;87.50
53599;DHT22;39485;45.702;11.364;2023-04-10T09:39:06;13.40;87.40
53599;DHT22;39485;45.702;11.364;2023-04-10T09:41:33;13.40;87.60
53599;DHT22;39485;45.702;11.364;2023-04-10T09:44:28;13.40;87.20
53599;DHT22;39485;45.702;11.364;2023-04-10T09:46:58;13.50;87.00
53599;DHT22;39485;45.702;11.364;2023-04-10T09:49:24;13.50;87.50
53599;DHT22;39485;45.702;11.364;2023-04-10T09:51:50;13.60;87.70
53599;DHT22;39485;45.702;11.364;2023-04-10T09:54:16;13.70;86.70
53599;DHT22;39485;45.702;11.364;2023-04-10T09:56:44;13.70;86.50
53599;DHT22;39485;45.702;11.364;2023-04-10T09:59:13;13.80;85.60
53599;DHT22;39485;45.702;11.364;2023-04-10T10:01:39;13.80;85.20
53599;DHT22;39485;45.702;11.364;2023-04-10T10:04:06;13.80;85.70
53599;DHT22;39485;45.702;11.364;2023-04-10T10:06:32;13.90;85.00
53599;DHT22;39485;45.702;11.364;2023-04-10T10:09:02;13.90;84.60
53599;DHT22;39485;45.702;11.364;2023-04-10T10:11:31;14.00;85.20
53599;DHT22;39485;45.702;11.364;2023-04-10T10:13:58;14.10;84.80
53599;DHT22;39485;45.702;11.364;2023-04-10T10:16:40;14.10;84.70
53599;DHT22;39485;45.702;11.364;2023-04-10T10:19:18;14.20;82.90
53599;DHT22;39485;45.702;11.364;2023-04-10T10:21:46;14.20;84.30
53599;DHT22;39485;45.702;11.364;2023-04-10T10:24:12;14.20;82.80
53599;DHT22;39485;45.702;11.364;2023-04-10T10:26:39;14.30;83.40
53599;DHT22;39485;45.702;11.364;2023-04-10T10:29:07;14.30;82.50
53599;DHT22;39485;45.702;11.364;2023-04-10T10:31:36;14.30;81.90
53599;DHT22;39485;45.702;11.364;2023-04-10T10:34:03;14.40;81.30
53599;DHT22;39485;45.702;11.364;2023-04-10T10:36:31;14.40;81.90
53599;DHT22;39485;45.702;11.364;2023-04-10T10:42:07;14.50;82.40
53599;DHT22;39485;45.702;11.364;2023-04-10T10:44:41;14.50;82.60
53599;DHT22;39485;45.702;11.364;2023-04-10T10:47:16;14.60;81.20
53599;DHT22;39485;45.702;11.364;2023-04-10T10:49:52;14.60;81.50
53599;DHT22;39485;45.702;11.364;2023-04-10T10:52:49;14.70;80.10
53599;DHT22;39485;45.702;11.364;2023-04-10T11:00:19;14.80;77.40
53599;DHT22;39485;45.702;11.364;2023-04-10T11:05:54;14.80;75.30
53599;DHT22;39485;45.702;11.364;2023-04-10T11:11:06;14.70;76.10
53599;DHT22;39485;45.702;11.364;2023-04-10T11:13:32;14.70;74.80
53599;DHT22;39485;45.702;11.364;2023-04-10T11:16:00;14.70;74.40
53599;DHT22;39485;45.702;11.364;2023-04-10T11:29:04;14.80;72.70
53599;DHT22;39485;45.702;11.364;2023-04-10T11:31:31;14.80;73.50
53599;DHT22;39485;45.702;11.364;2023-04-10T11:34:07;14.90;72.50
53599;DHT22;39485;45.702;11.364;2023-04-10T11:36:34;15.00;71.70
53599;DHT22;39485;45.702;11.364;2023-04-10T11:39:04;15.00;71.40
53599;DHT22;39485;45.702;11.364;2023-04-10T11:41:35;15.00;71.50
53599;DHT22;39485;45.702;11.364;2023-04-10T11:44:03;15.00;70.50
53599;DHT22;39485;45.702;11.364;2023-04-10T11:46:29;15.00;71.10
53599;DHT22;39485;45.702;11.364;2023-04-10T11:48:58;15.00;70.60
53599;DHT22;39485;45.702;11.364;2023-04-10T11:51:24;15.00;71.50
53599;DHT22;39485;45.702;11.364;2023-04-10T11:54:04;15.10;71.40
53599;DHT22;39485;45.702;11.364;2023-04-10T11:56:30;15.20;70.00
53599;DHT22;39485;45.702;11.364;2023-04-10T11:58:56;15.20;70.50
53599;DHT22;39485;45.702;11.364;2023-04-10T12:01:22;15.20;70.90
53599;DHT22;39485;45.702;11.364;2023-04-10T12:03:48;15.30;70.20
53599;DHT22;39485;45.702;11.364;2023-04-10T12:06:15;15.30;70.40
53599;DHT22;39485;45.702;11.364;2023-04-10T12:08:45;15.30;70.30
53599;DHT22;39485;45.702;11.364;2023-04-10T12:11:24;15.40;70.80
53599;DHT22;39485;45.702;11.364;2023-04-10T12:13:52;15.50;70.70
53599;DHT22;39485;45.702;11.364;2023-04-10T12:16:18;15.60;69.80
53599;DHT22;39485;45.702;11.364;2023-04-10T12:18:44;15.60;68.90
53599;DHT22;39485;45.702;11.364;2023-04-10T12:21:10;15.60;69.60
53599;DHT22;39485;45.702;11.364;2023-04-10T12:23:37;15.60;70.10
53599;DHT22;39485;45.702;11.364;2023-04-10T12:26:11;15.60;69.40
53599;DHT22;39485;45.702;11.364;2023-04-10T12:28:38;15.60;68.90
53599;DHT22;39485;45.702;11.364;2023-04-10T12:31:04;15.70;69.70
53599;DHT22;39485;45.702;11.364;2023-04-10T12:33:29;15.70;69.60
53599;DHT22;39485;45.702;11.364;2023-04-10T12:35:55;15.80;68.80
53599;DHT22;39485;45.702;11.364;2023-04-10T12:38:38;15.70;69.30
53599;DHT22;39485;45.702;11.364;2023-04-10T12:41:04;15.70;69.20
53599;DHT22;39485;45.702;11.364;2023-04-10T12:43:36;15.80;69.80
53599;DHT22;39485;45.702;11.364;2023-04-10T12:46:04;15.80;69.30
53599;DHT22;39485;45.702;11.364;2023-04-10T12:48:29;15.80;68.60
53599;DHT22;39485;45.702;11.364;2023-04-10T12:50:55;15.90;69.20
53599;DHT22;39485;45.702;11.364;2023-04-10T12:53:21;15.90;69.90
53599;DHT22;39485;45.702;11.364;2023-04-10T12:56:04;16.10;70.30
53599;DHT22;39485;45.702;11.364;2023-04-10T12:58:31;16.10;68.00
53599;DHT22;39485;45.702;11.364;2023-04-10T13:01:02;16.20;67.90
53599;DHT22;39485;45.702;11.364;2023-04-10T13:03:28;16.20;67.80
53599;DHT22;39485;45.702;11.364;2023-04-10T13:05:54;16.20;67.10
53599;DHT22;39485;45.702;11.364;2023-04-10T13:08:20;16.20;67.60
53599;DHT22;39485;45.702;11.364;2023-04-10T13:10:47;16.30;66.90
53599;DHT22;39485;45.702;11.364;2023-04-10T13:13:14;16.30;66.90
53599;DHT22;39485;45.702;11.364;2023-04-10T13:15:40;16.30;66.60
53599;DHT22;39485;45.702;11.364;2023-04-10T13:18:06;16.30;66.70
53599;DHT22;39485;45.702;11.364;2023-04-10T13:20:33;16.20;66.70
53599;DHT22;39485;45.702;11.364;2023-04-10T13:23:00;16.20;66.60
53599;DHT22;39485;45.702;11.364;2023-04-10T13:25:31;16.20;67.00
53599;DHT22;39485;45.702;11.364;2023-04-10T13:27:58;16.30;67.30
53599;DHT22;39485;45.702;11.364;2023-04-10T13:30:24;16.30;67.60
53599;DHT22;39485;45.702;11.364;2023-04-10T13:32:50;16.40;66.90
53599;DHT22;39485;45.702;11.364;2023-04-10T13:35:16;16.50;66.70
53599;DHT22;39485;45.702;11.364;2023-04-10T13:37:41;16.50;66.30
53599;DHT22;39485;45.702;11.364;2023-04-10T13:40:07;16.50;66.00
53599;DHT22;39485;45.702;11.364;2023-04-10T13:42:33;16.50;66.80
53599;DHT22;39485;45.702;11.364;2023-04-10T13:45:00;16.50;66.70
53599;DHT22;39485;45.702;11.364;2023-04-10T13:47:25;16.50;66.90
53599;DHT22;39485;45.702;11.364;2023-04-10T13:49:51;16.50;66.40
53599;DHT22;39485;45.702;11.364;2023-04-10T13:52:17;16.60;67.00
53599;DHT22;39485;45.702;11.364;2023-04-10T13:54:42;16.60;65.70
53599;DHT22;39485;45.702;11.364;2023-04-10T13:57:08;16.60;65.50
53599;DHT22;39485;45.702;11.364;2023-04-10T13:59:33;16.50;65.50
53599;DHT22;39485;45.702;11.364;2023-04-10T14:01:59;16.50;65.80
53599;DHT22;39485;45.702;11.364;2023-04-10T14:04:25;16.50;65.60
53599;DHT22;39485;45.702;11.364;2023-04-10T14:06:50;16.50;65.70
53599;DHT22;39485;45.702;11.364;2023-04-10T14:09:17;16.50;65.80
53599;DHT22;39485;45.702;11.364;2023-04-10T14:11:43;16.50;66.30
53599;DHT22;39485;45.702;11.364;2023-04-10T14:14:09;16.50;66.00
53599;DHT22;39485;45.702;11.364;2023-04-10T14:16:35;16.50;66.40
53599;DHT22;39485;45.702;11.364;2023-04-10T14:19:00;16.60;65.70
53599;DHT22;39485;45.702;11.364;2023-04-10T14:21:26;16.60;65.60
53599;DHT22;39485;45.702;11.364;2023-04-10T14:23:51;16.60;65.20
53599;DHT22;39485;45.702;11.364;2023-04-10T14:26:17;16.60;65.40
53599;DHT22;39485;45.702;11.364;2023-04-10T14:28:43;16.60;65.80
53599;DHT22;39485;45.702;11.364;2023-04-10T14:31:08;16.60;66.00
53599;DHT22;39485;45.702;11.364;2023-04-10T14:33:34;16.60;65.90
53599;DHT22;39485;45.702;11.364;2023-04-10T14:36:00;16.60;66.10
53599;DHT22;39485;45.702;11.364;2023-04-10T14:38:25;16.60;65.80
53599;DHT22;39485;45.702;11.364;2023-04-10T14:40:51;16.70;65.20
53599;DHT22;39485;45.702;11.364;2023-04-10T14:43:18;16.70;65.70
53599;DHT22;39485;45.702;11.364;2023-04-10T14:45:43;16.70;65.70
53599;DHT22;39485;45.702;11.364;2023-04-10T14:48:10;16.70;64.80
53599;DHT22;39485;45.702;11.364;2023-04-10T17:39:26;14.50;70.40
53599;DHT22;39485;45.702;11.364;2023-04-10T17:41:52;14.30;70.70
53599;DHT22;39485;45.702;11.364;2023-04-10T17:44:18;14.30;71.40
53599;DHT22;39485;45.702;11.364;2023-04-10T17:46:44;14.20;72.10
53599;DHT22;39485;45.702;11.364;2023-04-10T17:49:10;14.10;72.10
53599;DHT22;39485;45.702;11.364;2023-04-10T17:51:36;14.10;72.30
53599;DHT22;39485;45.702;11.364;2023-04-10T17:54:03;13.90;72.50
53599;DHT22;39485;45.702;11.364;2023-04-10T17:56:28;13.80;73.60
53599;DHT22;39485;45.702;11.364;2023-04-10T17:58:54;13.80;74.40
53599;DHT22;39485;45.702;11.364;2023-04-10T18:01:24;13.70;75.20
53599;DHT22;39485;45.702;11.364;2023-04-10T18:03:55;13.60;76.30
53599;DHT22;39485;45.702;11.364;2023-04-10T18:06:21;13.50;76.80
53599;DHT22;39485;45.702;11.364;2023-04-10T18:08:47;13.40;77.40
53599;DHT22;39485;45.702;11.364;2023-04-10T18:11:13;13.30;78.60
53599;DHT22;39485;45.702;11.364;2023-04-10T18:13:38;13.20;79.50
53599;DHT22;39485;45.702;11.364;2023-04-10T18:16:06;13.20;81.00
53599;DHT22;39485;45.702;11.364;2023-04-10T18:18:33;13.10;81.30
53599;DHT22;39485;45.702;11.364;2023-04-10T18:21:03;13.00;82.10
53599;DHT22;39485;45.702;11.364;2023-04-10T18:23:29;12.90;82.50
53599;DHT22;39485;45.702;11.364;2023-04-10T18:25:56;12.80;83.20
53599;DHT22;39485;45.702;11.364;2023-04-10T18:28:22;12.70;83.70
53599;DHT22;39485;45.702;11.364;2023-04-10T18:30:48;12.70;84.00
53599;DHT22;39485;45.702;11.364;2023-04-10T18:33:14;12.60;84.50
53599;DHT22;39485;45.702;11.364;2023-04-10T18:46:28;12.20;87.70
53599;DHT22;39485;45.702;11.364;2023-04-10T22:26:25;10.50;99.90
53599;DHT22;39485;45.702;11.364;2023-04-10T22:28:51;10.40;99.90
53599;DHT22;39485;45.702;11.364;2023-04-10T22:31:17;10.40;99.90
53599;DHT22;39485;45.702;11.364;2023-04-10T22:33:43;10.30;99.90
53599;DHT22;39485;45.702;11.364;2023-04-10T22:36:09;10.30;99.90
53599;DHT22;39485;45.702;11.364;2023-04-10T22:38:35;10.30;99.90
53599;DHT22;39485;45.702;11.364;2023-04-10T22:41:01;10.20;99.90
53599;DHT22;39485;45.702;11.364;2023-04-10T22:43:26;10.20;99.90